Buoy 41938

sailwx.info

Track history (hours):
 
Tides and Currents Weather Stations Pressure Air Temp Water Temp Dewpoint Dewpoint Depression Visibility Wind Speed Wind Dir Waves Ship Positions

Drifting buoy 41938

Last reported at 2014-Oct-02 05:00 UTC. Time now 2014-Oct-02 06:37 UTC.
Position N 37°02' W 072°11'.

Barometer 1013.4 mb
Water temperature 25.9 ° C

Date/timePositionNaut miles runAvg speedWind from/ knotsBaromVisibWave heightAir tempDewpointWater temp
2014-Oct-02 05:00N 37°02' W 072°11'0 0.0 1013.4 25.9
2014-Oct-02 04:00N 37°02' W 072°11'0 0.0 1013.6 25.9
2014-Oct-02 02:00N 37°02' W 072°11'3 2.6 1013.7 25.9
2014-Oct-02 01:00N 37°02' W 072°14'3 1.1 1013.3 25.9
2014-Oct-01 22:00N 37°01' W 072°18'1 0.9 1011.9 25.9
2014-Oct-01 21:00N 37°00' W 072°19'2 1.0 1011.4 25.9
2014-Oct-01 19:00N 36°59' W 072°21'2 1.9 1011.4 25.9
2014-Oct-01 18:00N 36°58' W 072°23'0 0.0 1011.5 25.9
2014-Oct-01 17:00N 36°58' W 072°23'1 1.3 1011.7 25.8
2014-Oct-01 16:00N 36°58' W 072°24'2 2.2 1012.0 25.7
2014-Oct-01 15:00N 36°58' W 072°27'0 0.0 1011.9 25.8
2014-Oct-01 14:00N 36°58' W 072°27'4 1.3 1011.4 25.5
2014-Oct-01 11:00N 36°55' W 072°30'2 0.8 1010.4 25.9
2014-Oct-01 09:00N 36°54' W 072°32'0 0.0 1009.9 26.0
2014-Oct-01 08:00N 36°54' W 072°32'2 2.5 1009.7 26.1
2014-Oct-01 07:00N 36°53' W 072°35'6 3.0 1009.9 26.3
2014-Oct-01 05:00N 36°50' W 072°42'2 0.8 1010.3 26.3
2014-Oct-01 02:00N 36°49' W 072°44'0 0.4 1010.3 26.3
2014-Oct-01 01:00N 36°49' W 072°45'3 3.4 1010.1 26.4
2014-Oct-01 00:00N 36°47' W 072°48'0 0.0 1010.0 26.1
2014-Sep-30 23:00N 36°47' W 072°48'0 0.0 1009.6 26.1
2014-Sep-30 22:00N 36°47' W 072°48'3 2.7 1009.4 26.1
2014-Sep-30 21:00N 36°45' W 072°51'4 1.9 1009.3 26.1
2014-Sep-30 19:00N 36°42' W 072°54'2 2.2 1010.0 26.1
2014-Sep-30 18:00N 36°41' W 072°56'2 2.1 1010.4 26.1
2014-Sep-30 17:00N 36°39' W 072°57'1 0.6 1011.1 26.1
2014-Sep-30 15:00N 36°39' W 072°58'0 0.0 1012.0 26.1
2014-Sep-30 14:00N 36°39' W 072°58'6 6.3 1012.3 26.0
2014-Sep-30 13:00N 36°37' W 073°06'0 0.1 1011.7 26.1
2014-Sep-30 10:00N 36°36' W 073°05'3 2.8 1011.9 26.1
2014-Sep-30 09:00N 36°37' W 073°09'0 0.0 1011.9 26.4
2014-Sep-30 08:00N 36°37' W 073°09'6 5.6 1011.6 27.5
2014-Sep-30 07:00N 36°34' W 073°15'7 7.1 1011.5 27.6
2014-Sep-30 06:00N 36°30' W 073°22'7 7.1 1012.2 27.6
2014-Sep-30 05:00N 36°34' W 073°15'7 2.4 1012.1 27.6
2014-Sep-30 02:00N 36°30' W 073°22'3 3.4 1013.2 27.6
2014-Sep-30 01:00N 36°28' W 073°25'3 3.4 1013.3 27.6
2014-Sep-30 00:00N 36°26' W 073°29'0 0.0 1013.3 27.6
2014-Sep-29 23:00N 36°26' W 073°29'3 1.7 1013.1 27.6
2014-Sep-29 21:00N 36°24' W 073°32'3 2.7 1013.3 27.4
2014-Sep-29 20:00N 36°22' W 073°34'1 1.1 1013.7 26.9
2014-Sep-29 19:00N 36°21' W 073°35'3 1.5 1013.9 26.9
2014-Sep-29 17:00N 36°19' W 073°38'7 3.6 1014.7 26.2
2014-Sep-29 15:00N 36°16' W 073°46'2 1.6 1015.3 26.4
2014-Sep-29 14:00N 36°15' W 073°47'6 6.2 1015.6 27.2
2014-Sep-29 13:00N 36°10' W 073°53'5 1.7 1015.6 27.2
2014-Sep-29 10:00N 36°06' W 073°56'0 0.0 1015.4 26.4
2014-Sep-29 09:00N 36°06' W 073°56'2 1.9 1015.5 26.4
2014-Sep-29 08:00N 36°05' W 073°58'3 3.0 1015.6 26.4
2014-Sep-29 07:00N 36°02' W 073°59'6 6.0 1015.8 26.5
2014-Sep-29 06:00N 35°56' W 074°00'0 0.0 1016.3 26.5
2014-Sep-29 03:00N 35°56' W 074°00'2 1.8 1017.3 26.3
2014-Sep-29 02:00N 35°55' W 074°02'0 0.0 1017.5 26.3
2014-Sep-29 01:00N 35°55' W 074°02'3 3.3 1017.6 26.4
2014-Sep-29 00:00N 35°52' W 074°03'1 0.3 1017.4 26.5
2014-Sep-28 22:00N 35°52' W 074°04'1 1.3 1017.6 26.5
2014-Sep-28 21:00N 35°51' W 074°05'1 0.9 1017.5 26.6
2014-Sep-28 20:00N 35°50' W 074°06'1 0.5 1017.8 26.6
2014-Sep-28 19:00N 35°50' W 074°06'2 1.2 1018.3 26.6
2014-Sep-28 17:00N 35°49' W 074°08'5 2.5 1019.3 26.5
2014-Sep-28 15:00N 35°47' W 074°14'4 3.9 1020.0 26.4
2014-Sep-28 14:00N 35°43' W 074°15'1 0.2 1020.5 26.3
2014-Sep-28 11:00N 35°43' W 074°16'2 2.4 1020.1 26.2
2014-Sep-28 10:00N 35°41' W 074°18'1 0.9 1020.0 26.2
2014-Sep-28 09:00N 35°40' W 074°18'0 0.4 1019.7 26.1
2014-Sep-28 08:00N 35°40' W 074°19'2 2.2 1019.8 26.1
2014-Sep-28 07:00N 35°38' W 074°20'0 0.1 1019.8 26.1
2014-Sep-28 06:00N 35°38' W 074°20'0 0.0 1020.1 26.1
2014-Sep-28 05:00N 35°38' W 074°20'6 1.9 1020.0 26.1
2014-Sep-28 02:00N 35°33' W 074°23'1 0.9 1020.5 26.1
2014-Sep-28 01:00N 35°32' W 074°23'1 0.7 1020.1 26.1
2014-Sep-28 00:00N 35°32' W 074°24'2 2.2 1020.1 26.1
2014-Sep-27 23:00N 35°30' W 074°24'1 0.5 1020.1 26.1
2014-Sep-27 22:00N 35°30' W 074°24'1 1.0 1019.9 26.1
2014-Sep-27 21:00N 35°29' W 074°24'3 0.5 1019.8 26.1
2014-Sep-27 15:00N 35°26' W 074°22'3 3.0 1020.9 26.5
2014-Sep-27 14:00N 35°24' W 074°25'0 0.0 1020.8 26.6
2014-Sep-27 11:00N 35°24' W 074°25'2 0.9 1019.7 26.7
2014-Sep-27 09:00N 35°23' W 074°27'2 1.7 1019.0 26.8
2014-Sep-27 08:00N 35°22' W 074°28'3 1.4 1019.0 26.8
2014-Sep-27 06:00N 35°20' W 074°31'3 0.5 1019.6 26.9
2014-Sep-27 01:00N 35°18' W 074°30'0 0.1 1019.7 26.8
2014-Sep-26 23:00N 35°18' W 074°30'1 1.4 1019.3 26.9
2014-Sep-26 22:00N 35°16' W 074°30'0 0.0 1019.2 26.9
2014-Sep-26 21:00N 35°16' W 074°30'1 1.1 1019.0 26.9
2014-Sep-26 20:00N 35°15' W 074°30'2 1.0 1018.9 27.0
2014-Sep-26 18:00N 35°14' W 074°28'4 1.5 1019.0 27.0
2014-Sep-26 15:00N 35°11' W 074°24'1 0.6 1019.4 27.1
2014-Sep-26 14:00N 35°11' W 074°24'3 0.8 1019.3 27.2
2014-Sep-26 10:00N 35°09' W 074°21'1 1.1 1018.8 27.4
2014-Sep-26 09:00N 35°10' W 074°22'4 1.4 1018.7 27.4
2014-Sep-26 06:00N 35°07' W 074°18'1 0.2 1019.4 27.6
2014-Sep-26 02:00N 35°07' W 074°17'1 0.6 1019.5 27.7
2014-Sep-26 01:00N 35°07' W 074°16'4 2.1 1019.2 27.7
2014-Sep-25 23:00N 35°07' W 074°11'1 0.4 1019.5 27.6
2014-Sep-25 21:00N 35°07' W 074°10'4 3.9 1019.6 26.7
2014-Sep-25 20:00N 35°07' W 074°06'1 0.4 1020.3 26.7
2014-Sep-25 18:00N 35°07' W 074°05'1 0.8 1021.0 26.7
2014-Sep-25 17:00N 35°08' W 074°04'1 1.2 1021.1 26.6
2014-Sep-25 16:00N 35°07' W 074°02'0 0.0 1021.5 26.4
2014-Sep-25 15:00N 35°07' W 074°02'1 0.7 1022.1 26.5
2014-Sep-25 14:00N 35°07' W 074°01'0 0.0 1022.2 26.5
2014-Sep-25 13:00N 35°07' W 074°01'0 0.1 1021.9 26.5
2014-Sep-25 11:00N 35°08' W 074°02'1 0.6 1021.5 26.5
2014-Sep-25 10:00N 35°07' W 074°01'1 1.2 1021.6 26.5
2014-Sep-25 09:00N 35°06' W 074°02'0 0.0 1021.6 26.5
2014-Sep-25 08:00N 35°06' W 074°02'0 0.0 1021.4 26.5
2014-Sep-25 07:00N 35°06' W 074°02'4 0.8 1021.3 26.5
2014-Sep-25 02:00N 35°02' W 074°00'2 1.7 1022.3 26.6
2014-Sep-25 01:00N 35°02' W 073°58'0 0.0 1022.0 26.5
2014-Sep-25 00:00N 35°02' W 073°58'2 1.2 1022.4 26.6
2014-Sep-24 22:00N 35°04' W 073°56'3 1.1 1022.6 26.4
2014-Sep-24 19:00N 35°07' W 073°56'2 2.0 1022.6 26.4
2014-Sep-24 18:00N 35°08' W 073°54'2 0.6 1023.3 26.5
2014-Sep-24 15:00N 35°09' W 073°52'0 0.5 1023.2 26.5
2014-Sep-24 14:00N 35°10' W 073°52'1 0.3 1022.7 26.5
2014-Sep-24 10:00N 35°11' W 073°51'1 1.1 1021.1 26.5
2014-Sep-24 09:00N 35°12' W 073°51'1 0.4 1020.8 26.5
2014-Sep-24 07:00N 35°13' W 073°50'0 0.0 1021.3 26.5
2014-Sep-24 05:00N 35°13' W 073°50'0 0.0 1021.2 26.6
2014-Sep-24 03:00N 35°13' W 073°50'0 0.2 1021.6 26.6
2014-Sep-24 02:00N 35°12' W 073°50'0 0.4 1021.8 26.6
2014-Sep-24 01:00N 35°12' W 073°50'0 0.0 1020.9 26.6
2014-Sep-24 00:00N 35°12' W 073°50'0 0.1 1021.0 26.6
2014-Sep-23 22:00N 35°12' W 073°50'0 0.0 1021.5 26.6
2014-Sep-23 21:00N 35°12' W 073°50'1 0.2 1021.6 26.6
2014-Sep-23 18:00N 35°13' W 073°50'0 0.0 1022.2 26.7
2014-Sep-23 17:00N 35°13' W 073°50'0 0.2 1023.1 26.7
2014-Sep-23 16:00N 35°13' W 073°50'0 0.1 1023.2 26.7
2014-Sep-23 15:00N 35°13' W 073°50'1 1.1 1022.4 26.7
2014-Sep-23 14:00N 35°14' W 073°50'1 0.4 1022.2 26.7
2014-Sep-23 11:00N 35°14' W 073°52'0 0.0 1021.1 26.8
2014-Sep-23 10:00N 35°14' W 073°52'2 2.2 1020.3 26.8
2014-Sep-23 09:00N 35°14' W 073°54'1 0.6 1019.8 26.8
2014-Sep-23 07:00N 35°12' W 073°54'2 0.8 1019.6 26.9
2014-Sep-23 05:00N 35°11' W 073°54'0 0.0 1019.8 26.9
2014-Sep-23 02:00N 35°11' W 073°54'1 1.0 1018.6 27.0
2014-Sep-23 01:00N 35°10' W 073°54'1 0.4 1017.9 27.0
2014-Sep-22 21:00N 35°10' W 073°52'0 0.5 1015.4 27.3
2014-Sep-22 20:00N 35°10' W 073°52'0 0.2 1015.2 27.3
2014-Sep-22 19:00N 35°10' W 073°52'0 0.3 1014.9 27.3
2014-Sep-22 18:00N 35°10' W 073°52'0 0.0 1014.8 27.3
2014-Sep-22 17:00N 35°10' W 073°52'2 1.5 1014.8 27.2
2014-Sep-22 16:00N 35°12' W 073°53'0 0.2 1014.7 27.2
2014-Sep-22 15:00N 35°12' W 073°53'1 1.3 1014.5 27.1
2014-Sep-22 14:00N 35°12' W 073°54'1 0.3 1014.1 27.1
2014-Sep-22 11:00N 35°13' W 073°55'1 0.7 1013.0 27.1
2014-Sep-22 10:00N 35°13' W 073°56'1 0.7 1012.4 27.2
2014-Sep-22 08:00N 35°13' W 073°57'0 0.3 1011.6 27.2
2014-Sep-22 07:00N 35°12' W 073°58'1 0.3 1011.8 27.2
2014-Sep-22 05:00N 35°12' W 073°58'   1011.8 27.3
Track history (hours):
 
Tides and Currents Weather Stations Pressure Air Temp Water Temp Dewpoint Dewpoint Depression Visibility Wind Speed Wind Dir Waves Ship Positions

Drifting buoy 41938

Last reported at 2014-Oct-02 05:00 UTC. Time now 2014-Oct-02 06:37 UTC.
Position N 37°02' W 072°11'.

Barometer 1013.4 mb
Water temperature 25.9 ° C

Date/timePositionNaut miles runAvg speedWind from/ knotsBaromVisibWave heightAir tempDewpointWater temp
2014-Oct-02 05:00N 37°02' W 072°11'0 0.0 1013.4 25.9
2014-Oct-02 04:00N 37°02' W 072°11'0 0.0 1013.6 25.9
2014-Oct-02 02:00N 37°02' W 072°11'3 2.6 1013.7 25.9
2014-Oct-02 01:00N 37°02' W 072°14'3 1.1 1013.3 25.9
2014-Oct-01 22:00N 37°01' W 072°18'1 0.9 1011.9 25.9
2014-Oct-01 21:00N 37°00' W 072°19'2 1.0 1011.4 25.9
2014-Oct-01 19:00N 36°59' W 072°21'2 1.9 1011.4 25.9
2014-Oct-01 18:00N 36°58' W 072°23'0 0.0 1011.5 25.9
2014-Oct-01 17:00N 36°58' W 072°23'1 1.3 1011.7 25.8
2014-Oct-01 16:00N 36°58' W 072°24'2 2.2 1012.0 25.7
2014-Oct-01 15:00N 36°58' W 072°27'0 0.0 1011.9 25.8
2014-Oct-01 14:00N 36°58' W 072°27'4 1.3 1011.4 25.5
2014-Oct-01 11:00N 36°55' W 072°30'2 0.8 1010.4 25.9
2014-Oct-01 09:00N 36°54' W 072°32'0 0.0 1009.9 26.0
2014-Oct-01 08:00N 36°54' W 072°32'2 2.5 1009.7 26.1
2014-Oct-01 07:00N 36°53' W 072°35'6 3.0 1009.9 26.3
2014-Oct-01 05:00N 36°50' W 072°42'2 0.8 1010.3 26.3
2014-Oct-01 02:00N 36°49' W 072°44'0 0.4 1010.3 26.3
2014-Oct-01 01:00N 36°49' W 072°45'3 3.4 1010.1 26.4
2014-Oct-01 00:00N 36°47' W 072°48'0 0.0 1010.0 26.1
2014-Sep-30 23:00N 36°47' W 072°48'0 0.0 1009.6 26.1
2014-Sep-30 22:00N 36°47' W 072°48'3 2.7 1009.4 26.1
2014-Sep-30 21:00N 36°45' W 072°51'4 1.9 1009.3 26.1
2014-Sep-30 19:00N 36°42' W 072°54'2 2.2 1010.0 26.1
2014-Sep-30 18:00N 36°41' W 072°56'2 2.1 1010.4 26.1
2014-Sep-30 17:00N 36°39' W 072°57'1 0.6 1011.1 26.1
2014-Sep-30 15:00N 36°39' W 072°58'0 0.0 1012.0 26.1
2014-Sep-30 14:00N 36°39' W 072°58'6 6.3 1012.3 26.0
2014-Sep-30 13:00N 36°37' W 073°06'0 0.1 1011.7 26.1
2014-Sep-30 10:00N 36°36' W 073°05'3 2.8 1011.9 26.1
2014-Sep-30 09:00N 36°37' W 073°09'0 0.0 1011.9 26.4
2014-Sep-30 08:00N 36°37' W 073°09'6 5.6 1011.6 27.5
2014-Sep-30 07:00N 36°34' W 073°15'7 7.1 1011.5 27.6
2014-Sep-30 06:00N 36°30' W 073°22'7 7.1 1012.2 27.6
2014-Sep-30 05:00N 36°34' W 073°15'7 2.4 1012.1 27.6
2014-Sep-30 02:00N 36°30' W 073°22'3 3.4 1013.2 27.6
2014-Sep-30 01:00N 36°28' W 073°25'3 3.4 1013.3 27.6
2014-Sep-30 00:00N 36°26' W 073°29'0 0.0 1013.3 27.6
2014-Sep-29 23:00N 36°26' W 073°29'3 1.7 1013.1 27.6
2014-Sep-29 21:00N 36°24' W 073°32'3 2.7 1013.3 27.4
2014-Sep-29 20:00N 36°22' W 073°34'1 1.1 1013.7 26.9
2014-Sep-29 19:00N 36°21' W 073°35'3 1.5 1013.9 26.9
2014-Sep-29 17:00N 36°19' W 073°38'7 3.6 1014.7 26.2
2014-Sep-29 15:00N 36°16' W 073°46'2 1.6 1015.3 26.4
2014-Sep-29 14:00N 36°15' W 073°47'6 6.2 1015.6 27.2
2014-Sep-29 13:00N 36°10' W 073°53'5 1.7 1015.6 27.2
2014-Sep-29 10:00N 36°06' W 073°56'0 0.0 1015.4 26.4
2014-Sep-29 09:00N 36°06' W 073°56'2 1.9 1015.5 26.4
2014-Sep-29 08:00N 36°05' W 073°58'3 3.0 1015.6 26.4
2014-Sep-29 07:00N 36°02' W 073°59'6 6.0 1015.8 26.5
2014-Sep-29 06:00N 35°56' W 074°00'0 0.0 1016.3 26.5
2014-Sep-29 03:00N 35°56' W 074°00'2 1.8 1017.3 26.3
2014-Sep-29 02:00N 35°55' W 074°02'0 0.0 1017.5 26.3
2014-Sep-29 01:00N 35°55' W 074°02'3 3.3 1017.6 26.4
2014-Sep-29 00:00N 35°52' W 074°03'1 0.3 1017.4 26.5
2014-Sep-28 22:00N 35°52' W 074°04'1 1.3 1017.6 26.5
2014-Sep-28 21:00N 35°51' W 074°05'1 0.9 1017.5 26.6
2014-Sep-28 20:00N 35°50' W 074°06'1 0.5 1017.8 26.6
2014-Sep-28 19:00N 35°50' W 074°06'2 1.2 1018.3 26.6
2014-Sep-28 17:00N 35°49' W 074°08'5 2.5 1019.3 26.5
2014-Sep-28 15:00N 35°47' W 074°14'4 3.9 1020.0 26.4
2014-Sep-28 14:00N 35°43' W 074°15'1 0.2 1020.5 26.3
2014-Sep-28 11:00N 35°43' W 074°16'2 2.4 1020.1 26.2
2014-Sep-28 10:00N 35°41' W 074°18'1 0.9 1020.0 26.2
2014-Sep-28 09:00N 35°40' W 074°18'0 0.4 1019.7 26.1
2014-Sep-28 08:00N 35°40' W 074°19'2 2.2 1019.8 26.1
2014-Sep-28 07:00N 35°38' W 074°20'0 0.1 1019.8 26.1
2014-Sep-28 06:00N 35°38' W 074°20'0 0.0 1020.1 26.1
2014-Sep-28 05:00N 35°38' W 074°20'6 1.9 1020.0 26.1
2014-Sep-28 02:00N 35°33' W 074°23'1 0.9 1020.5 26.1
2014-Sep-28 01:00N 35°32' W 074°23'1 0.7 1020.1 26.1
2014-Sep-28 00:00N 35°32' W 074°24'2 2.2 1020.1 26.1
2014-Sep-27 23:00N 35°30' W 074°24'1 0.5 1020.1 26.1
2014-Sep-27 22:00N 35°30' W 074°24'1 1.0 1019.9 26.1
2014-Sep-27 21:00N 35°29' W 074°24'3 0.5 1019.8 26.1
2014-Sep-27 15:00N 35°26' W 074°22'3 3.0 1020.9 26.5
2014-Sep-27 14:00N 35°24' W 074°25'0 0.0 1020.8 26.6
2014-Sep-27 11:00N 35°24' W 074°25'2 0.9 1019.7 26.7
2014-Sep-27 09:00N 35°23' W 074°27'2 1.7 1019.0 26.8
2014-Sep-27 08:00N 35°22' W 074°28'3 1.4 1019.0 26.8
2014-Sep-27 06:00N 35°20' W 074°31'3 0.5 1019.6 26.9
2014-Sep-27 01:00N 35°18' W 074°30'0 0.1 1019.7 26.8
2014-Sep-26 23:00N 35°18' W 074°30'1 1.4 1019.3 26.9
2014-Sep-26 22:00N 35°16' W 074°30'0 0.0 1019.2 26.9
2014-Sep-26 21:00N 35°16' W 074°30'1 1.1 1019.0 26.9
2014-Sep-26 20:00N 35°15' W 074°30'2 1.0 1018.9 27.0
2014-Sep-26 18:00N 35°14' W 074°28'4 1.5 1019.0 27.0
2014-Sep-26 15:00N 35°11' W 074°24'1 0.6 1019.4 27.1
2014-Sep-26 14:00N 35°11' W 074°24'3 0.8 1019.3 27.2
2014-Sep-26 10:00N 35°09' W 074°21'1 1.1 1018.8 27.4
2014-Sep-26 09:00N 35°10' W 074°22'4 1.4 1018.7 27.4
2014-Sep-26 06:00N 35°07' W 074°18'1 0.2 1019.4 27.6
2014-Sep-26 02:00N 35°07' W 074°17'1 0.6 1019.5 27.7
2014-Sep-26 01:00N 35°07' W 074°16'4 2.1 1019.2 27.7
2014-Sep-25 23:00N 35°07' W 074°11'1 0.4 1019.5 27.6
2014-Sep-25 21:00N 35°07' W 074°10'4 3.9 1019.6 26.7
2014-Sep-25 20:00N 35°07' W 074°06'1 0.4 1020.3 26.7
2014-Sep-25 18:00N 35°07' W 074°05'1 0.8 1021.0 26.7
2014-Sep-25 17:00N 35°08' W 074°04'1 1.2 1021.1 26.6
2014-Sep-25 16:00N 35°07' W 074°02'0 0.0 1021.5 26.4
2014-Sep-25 15:00N 35°07' W 074°02'1 0.7 1022.1 26.5
2014-Sep-25 14:00N 35°07' W 074°01'0 0.0 1022.2 26.5
2014-Sep-25 13:00N 35°07' W 074°01'0 0.1 1021.9 26.5
2014-Sep-25 11:00N 35°08' W 074°02'1 0.6 1021.5 26.5
2014-Sep-25 10:00N 35°07' W 074°01'1 1.2 1021.6 26.5
2014-Sep-25 09:00N 35°06' W 074°02'0 0.0 1021.6 26.5
2014-Sep-25 08:00N 35°06' W 074°02'0 0.0 1021.4 26.5
2014-Sep-25 07:00N 35°06' W 074°02'4 0.8 1021.3 26.5
2014-Sep-25 02:00N 35°02' W 074°00'2 1.7 1022.3 26.6
2014-Sep-25 01:00N 35°02' W 073°58'0 0.0 1022.0 26.5
2014-Sep-25 00:00N 35°02' W 073°58'2 1.2 1022.4 26.6
2014-Sep-24 22:00N 35°04' W 073°56'3 1.1 1022.6 26.4
2014-Sep-24 19:00N 35°07' W 073°56'2 2.0 1022.6 26.4
2014-Sep-24 18:00N 35°08' W 073°54'2 0.6 1023.3 26.5
2014-Sep-24 15:00N 35°09' W 073°52'0 0.5 1023.2 26.5
2014-Sep-24 14:00N 35°10' W 073°52'1 0.3 1022.7 26.5
2014-Sep-24 10:00N 35°11' W 073°51'1 1.1 1021.1 26.5
2014-Sep-24 09:00N 35°12' W 073°51'1 0.4 1020.8 26.5
2014-Sep-24 07:00N 35°13' W 073°50'0 0.0 1021.3 26.5
2014-Sep-24 05:00N 35°13' W 073°50'0 0.0 1021.2 26.6
2014-Sep-24 03:00N 35°13' W 073°50'0 0.2 1021.6 26.6
2014-Sep-24 02:00N 35°12' W 073°50'0 0.4 1021.8 26.6
2014-Sep-24 01:00N 35°12' W 073°50'0 0.0 1020.9 26.6
2014-Sep-24 00:00N 35°12' W 073°50'0 0.1 1021.0 26.6
2014-Sep-23 22:00N 35°12' W 073°50'0 0.0 1021.5 26.6
2014-Sep-23 21:00N 35°12' W 073°50'1 0.2 1021.6 26.6
2014-Sep-23 18:00N 35°13' W 073°50'0 0.0 1022.2 26.7
2014-Sep-23 17:00N 35°13' W 073°50'0 0.2 1023.1 26.7
2014-Sep-23 16:00N 35°13' W 073°50'0 0.1 1023.2 26.7
2014-Sep-23 15:00N 35°13' W 073°50'1 1.1 1022.4 26.7
2014-Sep-23 14:00N 35°14' W 073°50'1 0.4 1022.2 26.7
2014-Sep-23 11:00N 35°14' W 073°52'0 0.0 1021.1 26.8
2014-Sep-23 10:00N 35°14' W 073°52'2 2.2 1020.3 26.8
2014-Sep-23 09:00N 35°14' W 073°54'1 0.6 1019.8 26.8
2014-Sep-23 07:00N 35°12' W 073°54'2 0.8 1019.6 26.9
2014-Sep-23 05:00N 35°11' W 073°54'0 0.0 1019.8 26.9
2014-Sep-23 02:00N 35°11' W 073°54'1 1.0 1018.6 27.0
2014-Sep-23 01:00N 35°10' W 073°54'1 0.4 1017.9 27.0
2014-Sep-22 21:00N 35°10' W 073°52'0 0.5 1015.4 27.3
2014-Sep-22 20:00N 35°10' W 073°52'0 0.2 1015.2 27.3
2014-Sep-22 19:00N 35°10' W 073°52'0 0.3 1014.9 27.3
2014-Sep-22 18:00N 35°10' W 073°52'0 0.0 1014.8 27.3
2014-Sep-22 17:00N 35°10' W 073°52'2 1.5 1014.8 27.2
2014-Sep-22 16:00N 35°12' W 073°53'0 0.2 1014.7 27.2
2014-Sep-22 15:00N 35°12' W 073°53'1 1.3 1014.5 27.1
2014-Sep-22 14:00N 35°12' W 073°54'1 0.3 1014.1 27.1
2014-Sep-22 11:00N 35°13' W 073°55'1 0.7 1013.0 27.1
2014-Sep-22 10:00N 35°13' W 073°56'1 0.7 1012.4 27.2
2014-Sep-22 08:00N 35°13' W 073°57'0 0.3 1011.6 27.2
2014-Sep-22 07:00N 35°12' W 073°58'1 0.3 1011.8 27.2
2014-Sep-22 05:00N 35°12' W 073°58'   1011.8 27.3

Dump ship's entire track history